DUT Airport (Unalaska) Information

FAA: DUT - ICAO: PADU

DUT Airport Location

State Alaska
County Aleutians West
City Unalaska
DUT Airport is 1 mile north of Unalaska, AK.
Latitude 53-53-56.2000N
Longitude 166-32-42.1000W
Elevation 23ft

PADU Airport METARs

METAR PADU 262156Z 03006KT 10SM FEW043 SCT055 01/M07 A3002 RMK AO2 SLP171 T00061072 PNO $
Altimeter 30.02"
Temperature 0.6°C (33.1°F)
Wind 30° at 6KT
Clouds few at 4,300ft scattered at 5,500ft
Visibility 10.0mi
Time observed: 2021-11-26T21:56:00Z

DUT Airport Details

Status Operational
Activation January 1950
Ownership Public
Usage Public
Chart DUTCH HARBOR
ATC on-site No
Beacon schedule sunset-sunrise
Beacon color clear green

DUT Airport Contacts

Owner ALASKA DOT&PF SOUTHCOAST REGION
Owner address PO BOX 112500, JUNEAU, AK 99811-2500
Owner phone 907-465-4512
Manager SHANE NYQUIST, HARBOR MASTER
Manager address PO BOX 19110, PO BOX 19110, THORNE BAY, AK 99919-0110
Manager phone (907) 823-3380

DUT Airport (Unalaska) Radio Frequencies

DUT (Airport) Radio Frequencies

UNICOM N/A
Common traffic advisory frequency (CTAF) 122.6